Time;durP1;ratioP1;P1;durP2;ratioP2;P2;SDS_P1;SDS_P2;PMS_P1;PMS_P2;Temp;Humidity;BMP_temperature;BMP_pressure;BME280_temperature;BME280_humidity;BME280_pressure;Samples;Min_cycle;Max_cycle;Signal;HPM_P1;HPM_P2
2023/12/06 00:02:04;;;;;;;16.40;10.63;;;;;;;25.31;32.66;99429.44;4332809;33;33744;-59
2023/12/06 00:04:32;;;;;;;14.32;11.23;;;;;;;25.28;32.76;99427.22;4332600;33;34159;-59
2023/12/06 00:07:00;;;;;;;14.45;11.15;;;;;;;25.26;32.75;99423.88;4332517;33;34674;-60
2023/12/06 00:09:28;;;;;;;14.55;10.23;;;;;;;25.25;32.73;99424.97;4332526;33;33973;-59
2023/12/06 00:11:56;;;;;;;14.77;10.20;;;;;;;25.21;32.78;99430.09;4330936;33;34863;-59
2023/12/06 00:14:23;;;;;;;13.85;10.57;;;;;;;25.20;32.81;99428.44;4332661;33;33445;-59
2023/12/06 00:16:51;;;;;;;13.38;10.52;;;;;;;25.18;32.89;99427.84;4332613;33;34138;-58
2023/12/06 00:19:18;;;;;;;12.93;10.57;;;;;;;25.15;32.94;99414.72;4332381;33;33930;-59
2023/12/06 00:21:46;;;;;;;14.40;9.85;;;;;;;25.13;32.96;99422.28;4332585;33;33781;-59
2023/12/06 00:24:13;;;;;;;22.00;11.02;;;;;;;25.11;32.95;99416.28;4332509;33;33431;-59
2023/12/06 00:26:43;;;;;;;12.25;9.27;;;;;;;25.09;32.97;99411.06;4332415;33;34463;-59
2023/12/06 00:29:10;;;;;;;14.23;9.90;;;;;;;25.07;33.01;99421.37;4332896;33;34673;-60
2023/12/06 00:31:38;;;;;;;14.55;10.05;;;;;;;25.05;33.03;99415.34;4332720;33;34263;-57
2023/12/06 00:34:05;;;;;;;13.88;9.80;;;;;;;25.04;33.03;99419.13;4332488;33;33157;-59
2023/12/06 00:36:33;;;;;;;13.27;9.68;;;;;;;25.01;33.13;99419.63;4332489;33;33948;-59
2023/12/06 00:39:01;;;;;;;13.30;10.05;;;;;;;24.99;33.21;99413.56;4332067;33;33994;-59
2023/12/06 00:41:30;;;;;;;13.02;10.02;;;;;;;24.98;33.25;99402.91;4332061;33;35003;-59
2023/12/06 00:44:01;;;;;;;13.17;10.27;;;;;;;24.96;33.22;99403.16;4332622;33;33706;-59
2023/12/06 00:46:29;;;;;;;12.63;9.82;;;;;;;24.94;33.30;99400.66;4332265;33;34101;-59
2023/12/06 00:48:59;;;;;;;17.08;10.35;;;;;;;24.93;33.35;99390.00;4332312;33;34961;-59
2023/12/06 00:51:27;;;;;;;13.85;9.98;;;;;;;24.89;33.50;99400.56;4332365;33;34876;-60
2023/12/06 00:53:55;;;;;;;13.52;9.88;;;;;;;24.90;33.37;99390.47;4332251;33;33494;-59
2023/12/06 00:56:22;;;;;;;14.63;9.57;;;;;;;24.88;33.49;99400.81;4332342;33;34700;-59
2023/12/06 00:58:49;;;;;;;12.50;8.90;;;;;;;24.85;33.53;99390.38;4332620;33;34884;-59
2023/12/06 01:01:17;;;;;;;13.35;9.43;;;;;;;24.85;33.54;99398.56;4332170;33;34825;-60
2023/12/06 01:03:46;;;;;;;19.30;9.37;;;;;;;24.82;33.53;99399.91;4332595;33;33024;-60
2023/12/06 01:06:14;;;;;;;13.30;9.50;;;;;;;24.82;33.51;99404.53;4332583;33;34068;-58
2023/12/06 01:08:42;;;;;;;16.10;10.07;;;;;;;24.79;33.59;99394.94;4332086;33;34116;-59
2023/12/06 01:11:10;;;;;;;13.32;9.98;;;;;;;24.78;33.62;99395.19;4332301;33;34566;-58
2023/12/06 01:13:38;;;;;;;12.15;8.95;;;;;;;24.76;33.62;99397.31;4318867;33;34220;-59
2023/12/06 01:16:06;;;;;;;16.27;9.02;;;;;;;24.75;33.58;99391.03;4332036;33;34042;-59
2023/12/06 01:18:34;;;;;;;13.73;9.77;;;;;;;24.72;33.73;99386.09;4332145;33;34666;-58
2023/12/06 01:21:01;;;;;;;10.60;8.73;;;;;;;24.71;33.69;99386.31;4332162;33;34923;-59
2023/12/06 01:23:29;;;;;;;14.02;9.10;;;;;;;24.68;33.75;99385.75;4332215;33;33599;-59
2023/12/06 01:25:56;;;;;;;11.68;8.50;;;;;;;24.67;33.72;99386.00;4332424;33;33854;-57
2023/12/06 01:28:24;;;;;;;13.57;9.27;;;;;;;24.67;33.68;99392.28;4340105;33;34892;-59
2023/12/06 01:30:51;;;;;;;14.05;8.93;;;;;;;24.65;33.87;99380.75;4346374;33;34079;-59
2023/12/06 01:33:19;;;;;;;12.50;9.10;;;;;;;24.64;33.90;99376.37;4345698;33;33102;-59
2023/12/06 01:35:47;;;;;;;12.02;8.85;;;;;;;24.63;33.93;99380.19;4346966;33;33930;-59
2023/12/06 01:38:15;;;;;;;13.25;9.00;;;;;;;24.61;34.00;99378.78;4346340;33;34186;-59
2023/12/06 01:40:43;;;;;;;11.07;8.73;;;;;;;24.60;33.99;99372.50;4346702;33;33952;-59
2023/12/06 01:43:10;;;;;;;11.95;8.45;;;;;;;24.58;34.06;99371.91;4333487;33;33082;-59
2023/12/06 01:45:38;;;;;;;11.93;9.00;;;;;;;24.57;34.06;99370.25;4346401;33;34726;-58
2023/12/06 01:48:06;;;;;;;11.77;8.52;;;;;;;24.56;34.02;99365.88;4346476;33;34135;-59
2023/12/06 01:50:34;;;;;;;13.70;8.88;;;;;;;24.55;33.99;99368.84;4346690;33;33983;-58
2023/12/06 01:53:04;;;;;;;12.43;8.43;;;;;;;24.54;34.08;99367.19;4334973;33;33309;-59
2023/12/06 01:55:32;;;;;;;14.25;8.82;;;;;;;24.52;34.13;99363.88;4348315;33;34046;-59
2023/12/06 01:57:59;;;;;;;10.80;8.05;;;;;;;24.51;34.18;99362.22;4348207;33;34914;-59
2023/12/06 02:00:27;;;;;;;12.55;8.93;;;;;;;24.49;34.21;99359.75;4348402;33;34596;-59
2023/12/06 02:02:55;;;;;;;12.40;8.50;;;;;;;24.49;34.16;99361.66;4322866;33;34179;-58
2023/12/06 02:05:23;;;;;;;12.15;8.23;;;;;;;24.48;34.10;99357.25;4348073;33;35355;-59
2023/12/06 02:07:50;;;;;;;10.35;7.93;;;;;;;24.46;34.08;99354.78;4334810;33;34013;-59
2023/12/06 02:10:19;;;;;;;12.48;8.27;;;;;;;24.44;34.09;99346.03;4322691;33;34628;-58
2023/12/06 02:12:47;;;;;;;11.52;7.93;;;;;;;24.44;34.12;99348.75;4348020;33;34568;-57
2023/12/06 02:15:15;;;;;;;11.73;8.00;;;;;;;24.43;34.12;99347.06;4348197;33;34396;-59
2023/12/06 02:17:43;;;;;;;12.65;8.95;;;;;;;24.40;34.27;99340.22;4348227;33;34739;-57
2023/12/06 02:20:11;;;;;;;10.48;7.60;;;;;;;24.38;34.28;99350.53;4347919;33;34106;-59
2023/12/06 02:22:38;;;;;;;10.05;7.75;;;;;;;24.37;34.22;99343.41;4339285;33;33142;-59
2023/12/06 02:25:24;;;;;;;11.60;8.48;;;;;;;24.37;34.28;99340.69;4333287;33;34481;-58
2023/12/06 02:27:52;;;;;;;13.70;9.25;;;;;;;24.39;34.40;99340.47;4320065;33;34198;-59
2023/12/06 02:30:19;;;;;;;13.88;9.15;;;;;;;24.36;34.21;99335.47;4333654;33;34001;-59
2023/12/06 02:32:47;;;;;;;11.52;7.65;;;;;;;24.35;34.13;99328.38;4333159;33;33596;-58
2023/12/06 02:35:23;;;;;;;10.95;7.60;;;;;;;24.34;34.16;99329.41;4333527;33;34101;-57
2023/12/06 02:37:52;;;;;;;10.98;8.48;;;;;;;24.35;34.27;99331.09;4333098;33;33920;-60
2023/12/06 02:40:20;;;;;;;15.57;8.20;;;;;;;24.33;34.28;99338.66;4307978;33;34404;-59
2023/12/06 02:42:47;;;;;;;13.30;8.10;;;;;;;24.31;34.25;99330.75;4319961;33;34030;-58
2023/12/06 02:45:15;;;;;;;10.38;7.93;;;;;;;24.31;34.22;99329.91;4333331;33;34492;-59
2023/12/06 02:47:43;;;;;;;12.02;7.82;;;;;;;24.30;34.23;99333.72;4333020;33;34108;-58
2023/12/06 02:50:10;;;;;;;11.68;7.65;;;;;;;24.29;34.41;99329.31;4319912;33;34752;-59
2023/12/06 02:52:38;;;;;;;10.00;7.80;;;;;;;24.27;34.48;99329.56;4333272;33;33637;-59
2023/12/06 02:55:06;;;;;;;13.68;8.02;;;;;;;24.25;34.50;99326.28;4319999;33;34745;-59
2023/12/06 02:57:33;;;;;;;11.38;7.47;;;;;;;24.26;34.38;99336.09;4333202;33;34045;-61
2023/12/06 03:00:01;;;;;;;8.88;6.97;;;;;;;24.25;34.35;99333.59;4332211;33;34942;-60
2023/12/06 03:02:29;;;;;;;13.82;8.10;;;;;;;24.24;34.41;99326.50;4304698;33;33775;-61
2023/12/06 03:04:56;;;;;;;11.10;7.50;;;;;;;24.22;34.51;99323.19;4319223;33;34082;-60
2023/12/06 03:07:24;;;;;;;9.52;7.35;;;;;;;24.21;34.45;99322.37;4318834;33;34817;-61
2023/12/06 03:09:52;;;;;;;11.95;7.93;;;;;;;24.19;34.50;99330.78;4318294;33;33808;-61
2023/12/06 03:12:20;;;;;;;11.10;7.80;;;;;;;24.18;34.49;99320.94;4318641;33;33118;-61
2023/12/06 03:14:47;;;;;;;11.73;7.05;;;;;;;24.19;34.45;99324.50;4321769;33;34147;-60
2023/12/06 03:17:15;;;;;;;10.20;7.72;;;;;;;24.18;34.57;99328.31;4332684;33;33772;-60
2023/12/06 03:19:43;;;;;;;11.98;7.32;;;;;;;24.16;34.78;99328.56;4332026;33;34735;-60
2023/12/06 03:22:11;;;;;;;10.48;7.35;;;;;;;24.15;34.60;99326.91;4332851;33;34254;-60
2023/12/06 03:24:38;;;;;;;9.75;6.85;;;;;;;24.15;34.69;99320.59;4330077;33;33593;-61
2023/12/06 03:27:06;;;;;;;10.35;7.37;;;;;;;24.13;34.79;99328.19;4318315;33;34130;-61
2023/12/06 03:29:33;;;;;;;11.15;7.30;;;;;;;24.13;34.77;99323.56;4304978;33;34101;-61
2023/12/06 03:32:01;;;;;;;10.02;7.40;;;;;;;24.12;34.73;99324.66;4318315;33;33544;-61
2023/12/06 03:34:28;;;;;;;10.10;6.93;;;;;;;24.12;34.72;99327.38;4319228;33;33944;-60
2023/12/06 03:36:58;;;;;;;11.25;7.28;;;;;;;24.11;34.75;99330.34;4332887;33;33785;-60
2023/12/06 03:39:26;;;;;;;10.07;6.95;;;;;;;24.09;34.78;99330.56;4332747;33;34916;-60
2023/12/06 03:41:53;;;;;;;16.00;6.93;;;;;;;24.10;34.78;99321.31;4332948;33;33393;-60
2023/12/06 03:44:21;;;;;;;10.20;6.95;;;;;;;24.08;34.86;99325.38;4332437;33;33915;-60
2023/12/06 03:46:48;;;;;;;10.98;7.10;;;;;;;24.08;34.91;99328.09;4318226;33;35023;-61
2023/12/06 03:49:16;;;;;;;9.98;7.03;;;;;;;24.07;34.93;99331.91;4318114;33;34898;-61
2023/12/06 03:51:43;;;;;;;10.13;6.75;;;;;;;24.06;35.01;99324.78;4317975;33;33789;-61
2023/12/06 03:54:11;;;;;;;10.05;6.85;;;;;;;24.05;34.96;99331.31;4318242;33;34755;-61
2023/12/06 03:56:39;;;;;;;10.40;7.57;;;;;;;24.04;34.95;99326.94;4329309;33;34905;-59
2023/12/06 03:59:07;;;;;;;8.85;6.75;;;;;;;24.04;34.94;99321.47;4317965;33;34370;-60
2023/12/06 04:01:35;;;;;;;11.27;6.70;;;;;;;24.03;34.88;99317.94;4318100;33;33058;-60
2023/12/06 04:04:03;;;;;;;10.52;6.55;;;;;;;24.02;35.00;99321.72;4318105;33;34839;-60
2023/12/06 04:06:30;;;;;;;9.82;6.85;;;;;;;24.02;34.97;99326.34;4329796;33;33906;-61
2023/12/06 04:08:58;;;;;;;10.73;7.22;;;;;;;24.01;35.00;99319.22;4332630;33;33915;-60
2023/12/06 04:11:27;;;;;;;10.02;6.82;;;;;;;23.99;34.97;99322.19;4332740;33;33654;-61
2023/12/06 04:13:54;;;;;;;11.15;6.30;;;;;;;24.00;35.06;99318.41;4331977;33;34917;-60
2023/12/06 04:16:22;;;;;;;10.35;6.68;;;;;;;24.00;35.08;99329.31;4308157;33;34149;-60
2023/12/06 04:18:50;;;;;;;9.70;6.45;;;;;;;23.98;35.00;99326.00;4318076;33;34024;-60
2023/12/06 04:21:17;;;;;;;9.52;6.20;;;;;;;23.97;35.06;99329.81;4318041;33;33634;-60
2023/12/06 04:23:45;;;;;;;9.57;6.65;;;;;;;23.98;35.01;99330.63;4317931;33;34277;-60
2023/12/06 04:26:13;;;;;;;8.35;6.45;;;;;;;23.96;35.08;99325.41;4327050;33;33739;-60
2023/12/06 04:28:40;;;;;;;9.98;6.47;;;;;;;23.96;35.08;99321.84;4332343;33;33546;-60
2023/12/06 04:31:08;;;;;;;8.95;6.57;;;;;;;23.95;35.18;99314.75;4332632;33;33171;-60
2023/12/06 04:33:35;;;;;;;11.32;6.72;;;;;;;23.95;34.99;99314.75;4332535;33;34673;-60
2023/12/06 04:36:03;;;;;;;8.15;6.15;;;;;;;23.95;35.04;99318.31;4323868;33;34925;-61
2023/12/06 04:38:31;;;;;;;9.35;6.57;;;;;;;23.93;35.04;99313.09;4317677;33;34299;-60
2023/12/06 04:40:58;;;;;;;11.57;6.57;;;;;;;23.92;35.06;99313.31;4318178;33;33893;-60
2023/12/06 04:43:26;;;;;;;7.75;6.55;;;;;;;23.92;35.04;99316.03;4304649;33;33053;-61
2023/12/06 04:45:56;;;;;;;8.55;6.10;;;;;;;23.91;35.05;99319.84;4325101;33;34745;-61
2023/12/06 04:48:23;;;;;;;9.05;6.28;;;;;;;23.92;35.03;99316.03;4332486;33;33630;-61
2023/12/06 04:50:51;;;;;;;9.98;6.30;;;;;;;23.90;35.06;99312.75;4332180;33;33136;-60
2023/12/06 04:53:19;;;;;;;9.32;6.12;;;;;;;23.89;35.07;99311.09;4332340;33;34603;-60
2023/12/06 04:55:46;;;;;;;11.02;6.65;;;;;;;23.88;35.15;99299.37;4325944;33;34120;-61
2023/12/06 04:58:14;;;;;;;9.23;6.40;;;;;;;23.88;35.14;99299.37;4322927;33;33860;-59
2023/12/06 05:00:43;;;;;;;12.90;6.78;;;;;;;23.87;35.14;99307.78;4329893;33;34294;-59
2023/12/06 05:03:11;;;;;;;9.40;6.18;;;;;;;23.85;35.15;99308.03;4330706;33;33950;-59
2023/12/06 05:05:39;;;;;;;9.15;6.28;;;;;;;23.84;35.11;99309.09;4332202;33;33987;-58
2023/12/06 05:08:06;;;;;;;8.40;5.85;;;;;;;23.84;35.12;99303.66;4332550;33;33078;-59
2023/12/06 05:10:34;;;;;;;9.02;6.60;;;;;;;23.83;35.10;99302.00;4332195;33;34202;-58
2023/12/06 05:13:02;;;;;;;10.27;6.30;;;;;;;23.83;35.13;99303.91;4332277;33;33923;-59
2023/12/06 05:15:29;;;;;;;8.48;6.37;;;;;;;23.83;35.17;99304.72;4332490;33;35404;-58
2023/12/06 05:17:57;;;;;;;8.82;6.12;;;;;;;23.83;35.15;99301.19;4332131;33;33958;-59
2023/12/06 05:20:24;;;;;;;10.00;6.43;;;;;;;23.81;35.13;99301.41;4332149;33;33046;-59
2023/12/06 05:22:52;;;;;;;9.73;6.32;;;;;;;23.81;35.19;99300.56;4332202;33;33715;-59
2023/12/06 05:25:19;;;;;;;8.38;5.97;;;;;;;23.81;35.07;99304.12;4331667;33;33962;-59
2023/12/06 05:27:47;;;;;;;8.35;6.50;;;;;;;23.80;35.17;99304.38;4332067;33;34907;-59
2023/12/06 05:30:15;;;;;;;8.50;5.93;;;;;;;23.79;35.22;99309.00;4331954;33;33836;-58
2023/12/06 05:32:44;;;;;;;9.30;5.60;;;;;;;23.78;35.20;99301.91;4331932;33;33670;-59
2023/12/06 05:35:11;;;;;;;9.25;6.65;;;;;;;23.78;35.25;99303.78;4331985;33;34900;-59
2023/12/06 05:37:40;;;;;;;9.25;6.03;;;;;;;23.77;35.29;99296.66;4318551;33;33206;-59
2023/12/06 05:40:08;;;;;;;9.77;5.95;;;;;;;23.75;35.31;99298.81;4331789;33;33290;-59
2023/12/06 05:42:35;;;;;;;8.23;5.45;;;;;;;23.75;35.30;99307.81;4331879;33;34638;-59
2023/12/06 05:45:05;;;;;;;10.07;6.30;;;;;;;23.74;35.28;99318.97;4331869;33;34880;-58
2023/12/06 05:47:32;;;;;;;9.73;6.03;;;;;;;23.73;35.29;99311.84;4331772;33;33498;-58
2023/12/06 05:50:00;;;;;;;9.57;5.97;;;;;;;23.73;35.25;99317.28;4331796;33;34116;-59
2023/12/06 05:52:28;;;;;;;7.90;5.78;;;;;;;23.72;35.24;99316.47;4331787;33;34057;-59
2023/12/06 05:54:56;;;;;;;11.30;6.05;;;;;;;23.71;35.26;99308.53;4331425;33;33820;-59
2023/12/06 05:57:24;;;;;;;8.52;5.57;;;;;;;23.72;35.31;99304.75;4331664;33;34194;-58
2023/12/06 05:59:53;;;;;;;8.60;5.80;;;;;;;23.69;35.34;99303.34;4331581;33;33017;-59
2023/12/06 06:02:21;;;;;;;9.80;5.93;;;;;;;23.70;35.29;99305.00;4331521;33;34713;-58
2023/12/06 06:04:49;;;;;;;8.48;5.87;;;;;;;23.68;35.29;99302.50;4331728;33;34477;-59
2023/12/06 06:07:16;;;;;;;7.15;5.43;;;;;;;23.69;35.20;99295.16;4331586;33;34252;-58
2023/12/06 06:09:44;;;;;;;9.00;5.85;;;;;;;23.69;35.22;99295.16;4331430;33;33424;-59
2023/12/06 06:12:22;;;;;;;9.23;5.53;;;;;;;23.67;35.30;99303.56;4331448;33;33706;-59
2023/12/06 06:14:50;;;;;;;8.93;5.90;;;;;;;23.68;35.24;99307.94;4331387;33;34456;-59
2023/12/06 06:17:18;;;;;;;9.75;5.68;;;;;;;23.67;35.32;99308.19;4331420;33;34642;-59
2023/12/06 06:19:45;;;;;;;8.25;5.90;;;;;;;23.67;35.29;99313.63;4331464;33;33787;-59
2023/12/06 06:22:13;;;;;;;8.95;6.28;;;;;;;23.65;35.32;99319.34;4331174;33;33857;-59
2023/12/06 06:24:41;;;;;;;7.18;4.97;;;;;;;23.66;35.38;99306.53;4331131;33;34078;-59
2023/12/06 06:27:09;;;;;;;11.27;5.72;;;;;;;23.63;35.36;99313.25;4331293;33;34082;-58
2023/12/06 06:29:37;;;;;;;10.77;5.85;;;;;;;23.63;35.42;99315.97;4331259;33;33346;-59
2023/12/06 06:32:06;;;;;;;9.35;5.60;;;;;;;23.62;35.46;99311.59;4331366;33;34802;-57
2023/12/06 06:34:34;;;;;;;7.78;5.40;;;;;;;23.61;35.43;99320.84;4331501;33;34203;-59
2023/12/06 06:37:02;;;;;;;13.18;5.00;;;;;;;23.62;35.41;99327.94;4330992;33;34661;-59
2023/12/06 06:39:31;;;;;;;10.55;4.90;;;;;;;23.62;35.46;99327.12;4332918;33;34455;-60
2023/12/06 06:41:59;;;;;;;10.57;6.37;;;;;;;23.61;35.52;99331.72;4333178;33;34023;-59
2023/12/06 06:44:29;;;;;;;9.45;5.43;;;;;;;23.60;35.49;99326.53;4333114;33;34926;-59
2023/12/06 06:46:57;;;;;;;7.62;4.97;;;;;;;23.59;35.49;99328.41;4333293;33;33719;-59
2023/12/06 06:49:25;;;;;;;8.05;5.40;;;;;;;23.58;35.52;99326.75;4332801;33;33091;-59
2023/12/06 06:51:53;;;;;;;7.43;5.43;;;;;;;23.59;35.44;99327.56;4333197;33;33785;-59
2023/12/06 06:54:21;;;;;;;12.88;5.75;;;;;;;23.59;35.41;99333.03;4333084;33;34903;-59
2023/12/06 06:56:48;;;;;;;11.73;5.35;;;;;;;23.59;35.49;99327.56;4332992;33;33762;-58
2023/12/06 06:59:16;;;;;;;7.93;5.05;;;;;;;23.59;35.48;99341.19;4319669;33;33583;-59
2023/12/06 07:01:45;;;;;;;10.98;5.62;;;;;;;23.58;35.49;99334.09;4332968;33;34014;-62
2023/12/06 07:04:13;;;;;;;8.20;5.30;;;;;;;23.57;35.43;99335.19;4333058;33;34952;-62
2023/12/06 07:06:41;;;;;;;10.93;6.47;;;;;;;23.56;34.42;99331.63;4332881;33;34164;-62
2023/12/06 07:09:08;;;;;;;8.38;5.60;;;;;;;23.54;34.34;99335.63;4332131;33;33586;-62
2023/12/06 07:11:36;;;;;;;9.10;5.90;;;;;;;23.52;34.50;99333.16;4333013;33;34006;-62
2023/12/06 07:14:04;;;;;;;8.38;6.07;;;;;;;23.50;34.58;99329.87;4332993;33;34648;-62
2023/12/06 07:16:31;;;;;;;8.20;5.18;;;;;;;23.50;34.76;99337.19;4333001;33;33963;-62
2023/12/06 07:18:59;;;;;;;8.73;5.50;;;;;;;23.49;34.72;99341.78;4332929;33;33678;-62
2023/12/06 07:21:27;;;;;;;7.55;4.70;;;;;;;23.52;34.86;99346.78;4333034;33;33806;-62
2023/12/06 07:23:54;;;;;;;7.95;5.35;;;;;;;23.57;34.94;99343.34;4332899;33;33910;-61
2023/12/06 07:26:22;;;;;;;7.90;5.37;;;;;;;23.68;34.88;99348.78;4332873;33;34087;-59
2023/12/06 07:28:50;;;;;;;7.00;4.62;;;;;;;23.80;34.78;99348.78;4332991;33;33490;-60
2023/12/06 07:31:18;;;;;;;9.75;5.07;;;;;;;23.94;34.67;99349.34;4332693;33;34387;-59
2023/12/06 07:33:49;;;;;;;6.68;4.57;;;;;;;24.06;34.59;99352.87;4332695;33;34679;-60
2023/12/06 07:36:19;;;;;;;7.95;5.47;;;;;;;24.20;34.49;99350.69;4332854;33;33588;-60
2023/12/06 07:38:47;;;;;;;7.25;4.68;;;;;;;24.33;34.43;99349.56;4332645;33;33281;-59
2023/12/06 07:41:15;;;;;;;8.88;5.12;;;;;;;24.43;34.35;99344.34;4332650;33;34109;-59
2023/12/06 07:43:42;;;;;;;6.95;4.43;;;;;;;24.53;34.30;99335.50;4332805;33;33720;-59
2023/12/06 07:46:10;;;;;;;7.87;5.00;;;;;;;24.59;34.25;99334.56;4332683;33;33952;-60
2023/12/06 07:48:38;;;;;;;7.90;4.70;;;;;;;24.66;34.19;99330.59;4332612;33;33425;-60
2023/12/06 07:51:05;;;;;;;7.15;4.87;;;;;;;24.72;34.18;99336.97;4332673;33;33335;-59
2023/12/06 07:53:33;;;;;;;7.28;4.87;;;;;;;24.76;34.17;99343.59;4318191;33;33734;-58
2023/12/06 07:56:01;;;;;;;7.50;4.70;;;;;;;24.80;34.17;99343.91;4323301;33;34130;-60
2023/12/06 07:58:30;;;;;;;7.43;4.45;;;;;;;24.83;34.15;99354.34;4332790;33;34073;-59
2023/12/06 08:00:58;;;;;;;7.40;4.70;;;;;;;24.87;34.13;99350.06;4333023;33;33936;-60
2023/12/06 08:03:30;;;;;;;7.55;4.50;;;;;;;24.88;34.08;99343.50;4332511;33;34002;-59
2023/12/06 08:05:59;;;;;;;10.07;4.60;;;;;;;24.88;34.09;99347.06;4332909;33;34363;-60
2023/12/06 08:08:28;;;;;;;7.12;4.65;;;;;;;24.87;34.06;99344.59;4332685;33;34496;-58
2023/12/06 08:10:56;;;;;;;19.37;5.18;;;;;;;24.90;33.97;99349.53;4332575;33;34802;-58
2023/12/06 08:13:25;;;;;;;11.32;4.62;;;;;;;24.88;33.93;99355.25;4319380;33;34780;-60
2023/12/06 08:15:53;;;;;;;8.70;4.85;;;;;;;24.87;33.95;99350.06;4332642;33;33740;-59
2023/12/06 08:18:20;;;;;;;17.08;8.00;;;;;;;24.86;33.93;99343.78;4319291;33;31947;-65
2023/12/06 08:20:48;;;;;;;19.15;14.05;;;;;;;24.85;32.88;99350.28;4332533;33;34106;-64
2023/12/06 08:23:16;;;;;;;18.45;11.82;;;;;;;24.72;28.34;99341.62;4331310;33;34889;-64
2023/12/06 08:25:43;;;;;;;12.75;10.27;;;;;;;24.59;29.45;99332.66;4332793;33;33943;-64
2023/12/06 08:28:11;;;;;;;13.40;8.90;;;;;;;24.53;30.65;99341.81;4332676;33;33673;-62
2023/12/06 08:30:38;;;;;;;10.98;8.02;;;;;;;24.50;30.67;99339.56;4332368;33;34772;-62
2023/12/06 08:33:06;;;;;;;10.45;7.35;;;;;;;24.51;30.62;99340.41;4332795;33;34009;-63
2023/12/06 08:35:33;;;;;;;10.98;7.15;;;;;;;24.56;30.71;99349.50;4332566;33;34507;-62
2023/12/06 08:38:01;;;;;;;12.30;7.35;;;;;;;24.63;30.79;99347.47;4332258;33;33481;-65
2023/12/06 08:40:29;;;;;;;9.90;6.53;;;;;;;24.69;30.87;99341.00;4332506;33;34730;-65
2023/12/06 08:42:56;;;;;;;10.02;6.57;;;;;;;24.79;30.92;99348.53;4332789;33;34022;-62
2023/12/06 08:45:24;;;;;;;14.00;6.53;;;;;;;24.86;31.00;99343.78;4332116;33;34248;-60
2023/12/06 08:47:52;;;;;;;14.05;6.93;;;;;;;24.96;31.18;99345.03;4332776;33;33776;-62
2023/12/06 08:50:19;;;;;;;10.95;6.20;;;;;;;25.04;31.31;99344.59;4332430;33;33943;-62
2023/12/06 08:52:48;;;;;;;11.68;6.97;;;;;;;25.12;31.39;99346.94;4331906;33;33305;-61
2023/12/06 08:55:16;;;;;;;19.73;6.68;;;;;;;25.19;31.50;99337.50;4332578;33;34014;-63
2023/12/06 08:57:43;;;;;;;18.83;7.15;;;;;;;25.23;31.59;99340.59;4332517;33;34145;-69
2023/12/06 09:00:12;;;;;;;19.40;7.12;;;;;;;25.28;31.60;99339.84;4331824;33;34682;-62
2023/12/06 09:02:42;;;;;;;14.65;6.87;;;;;;;25.32;31.70;99344.53;4332408;33;34173;-62
2023/12/06 09:05:13;;;;;;;16.50;6.72;;;;;;;25.39;31.87;99347.09;4331170;33;34682;-60
2023/12/06 09:07:41;;;;;;;17.73;6.50;;;;;;;25.47;31.95;99340.38;4331353;33;33268;-61
2023/12/06 09:10:09;;;;;;;12.45;6.20;;;;;;;25.53;32.01;99345.66;4332169;33;34730;-59
2023/12/06 09:12:36;;;;;;;19.83;6.62;;;;;;;25.59;32.00;99335.63;4332383;33;34059;-61
2023/12/06 09:15:04;;;;;;;14.55;6.60;;;;;;;25.66;31.95;99339.84;4332317;33;33614;-61
2023/12/06 09:17:33;;;;;;;17.27;6.50;;;;;;;25.74;31.80;99344.06;4332449;33;34236;-60
2023/12/06 09:20:00;;;;;;;19.20;6.87;;;;;;;25.81;31.58;99346.63;4332186;33;33721;-61
2023/12/06 09:22:28;;;;;;;18.95;7.00;;;;;;;25.86;31.41;99344.78;4332078;33;33535;-61
2023/12/06 09:24:56;;;;;;;22.20;6.47;;;;;;;25.94;31.36;99336.13;4332316;33;34168;-61
2023/12/06 09:27:23;;;;;;;22.27;6.90;;;;;;;25.98;31.30;99333.72;4332232;33;33467;-61
2023/12/06 09:29:52;;;;;;;18.33;6.45;;;;;;;26.02;31.22;99334.88;4330630;33;35167;-61
2023/12/06 09:32:19;;;;;;;17.90;7.32;;;;;;;26.08;31.14;99333.03;4333136;33;34000;-61
2023/12/06 09:34:47;;;;;;;14.57;6.20;;;;;;;26.11;31.08;99333.34;4346684;33;33884;-60
2023/12/06 09:37:16;;;;;;;12.10;6.93;;;;;;;26.14;31.00;99337.47;4346721;33;33951;-61
2023/12/06 09:39:44;;;;;;;14.05;6.50;;;;;;;26.17;30.95;99331.47;4346309;33;34100;-61
2023/12/06 09:42:11;;;;;;;17.17;6.07;;;;;;;26.18;30.94;99330.41;4346684;33;33612;-61
2023/12/06 09:44:41;;;;;;;16.37;6.78;;;;;;;26.19;30.94;99335.59;4344936;33;33569;-60
2023/12/06 09:47:08;;;;;;;16.83;6.17;;;;;;;26.20;30.95;99333.69;4338848;33;33496;-61
2023/12/06 09:49:36;;;;;;;17.17;6.55;;;;;;;26.22;30.95;99326.06;4346146;33;34889;-59
2023/12/06 09:52:10;;;;;;;12.85;6.12;;;;;;;26.22;31.01;99322.50;4346165;33;35105;-60
2023/12/06 09:54:41;;;;;;;23.40;7.10;;;;;;;26.20;31.05;99329.03;4346528;33;33615;-60
2023/12/06 09:57:12;;;;;;;12.48;6.68;;;;;;;26.19;31.10;99332.88;4317707;33;33216;-61
2023/12/06 09:59:40;;;;;;;16.95;7.00;;;;;;;26.19;31.26;99323.84;4316911;33;35030;-61
2023/12/06 10:02:07;;;;;;;15.95;6.00;;;;;;;26.19;31.28;99324.66;4307525;33;34040;-61
2023/12/06 10:04:35;;;;;;;14.32;6.68;;;;;;;26.22;31.25;99330.72;4331568;33;34381;-61
2023/12/06 10:07:03;;;;;;;16.37;6.22;;;;;;;26.22;31.30;99333.44;4331422;33;33947;-60
2023/12/06 10:09:31;;;;;;;10.98;6.00;;;;;;;26.24;31.29;99337.56;4329925;33;33945;-61
2023/12/06 10:12:07;;;;;;;15.43;6.85;;;;;;;26.28;31.30;99337.87;4330637;33;34161;-62
2023/12/06 10:14:34;;;;;;;12.55;6.05;;;;;;;26.30;31.29;99333.81;4331924;33;33772;-60
2023/12/06 10:17:02;;;;;;;13.23;5.70;;;;;;;26.34;31.26;99343.16;4331754;33;33688;-63
2023/12/06 10:19:31;;;;;;;9.18;5.30;;;;;;;26.38;31.25;99332.53;4331942;33;34794;-62
2023/12/06 10:21:59;;;;;;;14.75;6.12;;;;;;;26.42;31.23;99336.41;4318295;33;34851;-60
2023/12/06 10:24:27;;;;;;;13.30;5.97;;;;;;;26.42;31.31;99339.97;4315484;33;32505;-61
2023/12/06 10:27:09;;;;;;;17.27;6.53;;;;;;;26.44;31.30;99332.38;4347631;33;33861;-60
2023/12/06 10:29:36;;;;;;;12.18;5.68;;;;;;;26.47;31.23;99336.47;4325909;33;33705;-57
2023/12/06 10:32:05;;;;;;;14.07;6.40;;;;;;;26.47;31.23;99330.19;4319231;33;34032;-61
2023/12/06 10:34:32;;;;;;;11.73;5.70;;;;;;;26.45;31.25;99331.28;4318357;33;34004;-60
2023/12/06 10:37:00;;;;;;;9.45;5.53;;;;;;;26.46;31.27;99337.56;4318529;33;34216;-60
2023/12/06 10:39:28;;;;;;;13.18;6.35;;;;;;;26.44;31.26;99337.00;4293280;33;34103;-59
2023/12/06 10:41:56;;;;;;;12.48;5.32;;;;;;;26.42;31.33;99333.66;4292731;33;33668;-60
2023/12/06 10:44:23;;;;;;;9.85;6.22;;;;;;;26.40;31.39;99342.12;4315596;33;33919;-61
2023/12/06 10:46:51;;;;;;;14.75;6.87;;;;;;;26.39;31.42;99334.16;4306548;33;33644;-61
2023/12/06 10:49:32;;;;;;;;;;;;;;;26.35;31.43;99330.31;4320939;33;34101;-59
2023/12/06 10:51:59;;;;;;;11.45;6.43;;;;;;;26.44;31.27;99331.53;4315471;33;34251;-57
2023/12/06 10:54:27;;;;;;;11.55;6.37;;;;;;;26.33;31.40;99335.22;4330292;33;34090;-60
2023/12/06 10:56:56;;;;;;;9.35;5.37;;;;;;;26.27;31.52;99331.59;4332313;33;33560;-61
2023/12/06 10:59:28;;;;;;;10.00;5.65;;;;;;;26.25;31.55;99330.19;4331465;33;33735;-60
2023/12/06 11:01:56;;;;;;;8.73;6.10;;;;;;;26.22;31.58;99327.97;4330719;33;34892;-59
2023/12/06 11:04:25;;;;;;;9.93;5.70;;;;;;;26.19;31.63;99329.31;4304172;33;34092;-61
2023/12/06 11:06:58;;;;;;;12.77;6.20;;;;;;;26.17;31.67;99321.38;4314957;33;33502;-60
2023/12/06 11:09:32;;;;;;;10.50;5.20;;;;;;;26.15;31.64;99306.28;4331514;33;33677;-60
2023/12/06 11:12:14;;;;;;;12.80;6.03;;;;;;;26.09;31.78;99308.16;4319057;33;34922;-61
2023/12/06 11:15:05;;;;;;;13.95;5.93;;;;;;;26.04;31.93;99299.87;4331699;33;34923;-61
2023/12/06 11:17:42;;;;;;;11.15;6.07;;;;;;;25.99;31.90;99299.84;4332513;33;34486;-61
2023/12/06 11:20:09;;;;;;;10.88;6.62;;;;;;;25.94;31.77;99300.59;4318358;33;34010;-63
2023/12/06 11:22:37;;;;;;;12.25;7.35;;;;;;;25.88;31.71;99304.34;4320380;33;33574;-63
2023/12/06 11:25:21;;;;;;;10.15;7.07;;;;;;;25.82;31.46;99302.63;4331920;33;34101;-63
2023/12/06 11:27:49;;;;;;;12.93;7.37;;;;;;;25.78;31.21;99298.75;4333803;33;32560;-64
2023/12/06 11:30:17;;;;;;;13.60;7.30;;;;;;;25.73;30.96;99292.37;4333449;33;34755;-63
2023/12/06 11:32:45;;;;;;;13.43;7.78;;;;;;;25.67;30.83;99289.56;4329465;33;34071;-61